Flight Track Log - Related Links

Times and Time Zones

All times are in EDT time to prevent confusion due to time zone crossing. See the BSK392 flight status page for this flight to view local times or setup timezone preferences in your user account.

Time Position Orientation Groundspeed Altitude Reporting Facility
EDT Latitude Longitude Course Direction KTS MPH feet Rate Location/Type
Sat 02:14:20 PM 40.5283 -80.3108 42° Northeast 255 293 3,700  Level Cleveland Center
Sat 02:15:21 PM 40.5989 -80.2883 14° North 257 296 5,800 2,423 Climbing Cleveland Center
Sat 02:19:00 PM 41.0218 -79.9638 42° Northeast  Level FlightAware Approximate
Sat 02:21:16 PM 41.0997 -79.8928 41° Northeast 417 480 20,500  Level FlightAware ADS-B (CYYZ)
Sat 02:21:55 PM 41.1567 -79.8243 42° Northeast 430 495 21,900 2,057 Climbing FlightAware ADS-B (CYYZ)
Sat 02:22:26 PM 41.2026 -79.7692 42° Northeast 438 504 22,900 2,000 Climbing FlightAware ADS-B (CYYZ)
Sat 02:22:55 PM 41.2468 -79.7158 42° Northeast 446 513 23,900 1,925 Climbing FlightAware ADS-B (CYYZ)
Sat 02:23:19 PM 41.2814 -79.6737 42° Northeast 452 520 24,600 1,935 Climbing FlightAware ADS-B (EPLB / LUZ)
Sat 02:23:26 PM 41.2942 -79.6584 42° Northeast 453 521 24,900 1,833 Climbing FlightAware ADS-B (CYYZ)
Sat 02:23:55 PM 41.3402 -79.6030 42° Northeast 461 531 25,700 1,627 Climbing FlightAware ADS-B (CYYZ)
Sat 02:24:25 PM 41.3881 -79.5453 42° Northeast 468 539 26,500 1,622 Climbing FlightAware ADS-B (CYYZ)
Sat 02:24:32 PM 41.3992 -79.5318 42° Northeast 469 540 26,700 1,800 Climbing FlightAware ADS-B (EPLB / LUZ)
Sat 02:24:55 PM 41.4365 -79.4868 42° Northeast 474 545 27,400 1,556 Climbing FlightAware ADS-B (CYYZ)
Sat 02:25:26 PM 41.4863 -79.4260 42° Northeast 481 554 28,100 1,200 Climbing FlightAware ADS-B (CYYZ)
Sat 02:25:55 PM 41.5331 -79.3689 42° Northeast 493 567 28,600 857 Climbing FlightAware ADS-B (CYYZ)
Sat 02:26:15 PM 41.5642 -79.3230 59° Northeast 503 579 28,800 800 Climbing FlightAware ADS-B (CYYZ)
Sat 02:26:25 PM 41.5748 -79.2928 71° East 500 575 29,000 1,143 Climbing FlightAware ADS-B (CYYZ)
Sat 02:26:36 PM 41.5807 -79.2598 81° East 496 571 29,200 1,200 Climbing FlightAware ADS-B (CYYZ)
Sat 02:26:55 PM 41.5796 -79.2008 97° East 486 559 29,600 1,364 Climbing FlightAware ADS-B (CYYZ)
Sat 02:26:58 PM 41.5789 -79.1943 98° East 488 562 29,700 1,400 Climbing FlightAware ADS-B (EPLB / LUZ)
Sat 02:27:25 PM 41.5714 -79.1132 96° East 493 567 30,300 1,448 Climbing FlightAware ADS-B (CYYZ)
Sat 02:27:56 PM 41.5630 -79.0197 96° East 495 570 31,100 800 Climbing FlightAware ADS-B (CYYZ)
Sat 02:28:25 PM 41.5552 -78.9292 96° East 493 567 31,100  Level FlightAware ADS-B (CYYZ)
Sat 02:28:55 PM 41.5479 -78.8393 96° East 491 565 31,100  Level FlightAware ADS-B (CYYZ)
Sat 02:29:26 PM 41.5405 -78.7483 96° East 490 564 31,100  Level FlightAware ADS-B (CYYZ)
Sat 02:29:56 PM 41.5331 -78.6596 96° East 489 563 31,100  Level FlightAware ADS-B (CYYZ)
Sat 02:30:46 PM 41.5206 -78.5116 96° East 486 559 31,100  Level FlightAware ADS-B (CYYZ)
Sat 02:31:15 PM 41.5123 -78.4196 96° East 486 559 31,100  Level FlightAware ADS-B (CYYZ)
Sat 02:31:45 PM 41.5046 -78.3303 96° East 486 559 31,100  Level FlightAware ADS-B (CYYZ)
Sat 02:32:15 PM 41.4965 -78.2405 96° East 487 560 31,100  Level FlightAware ADS-B (CYYZ)
Sat 02:32:46 PM 41.4885 -78.1511 96° East 487 560 31,100  Level FlightAware ADS-B (CYYZ)
Sat 02:33:15 PM 41.4804 -78.0635 96° East 488 562 31,100  Level FlightAware ADS-B (CYYZ)
Sat 02:33:45 PM 41.4724 -77.9751 97° East 489 563 31,100  Level FlightAware ADS-B (CYYZ)
Sat 02:34:16 PM 41.4637 -77.8837 97° East 491 565 31,100  Level FlightAware ADS-B (CYYZ)
Sat 02:34:45 PM 41.4553 -77.7939 97° East 494 568 31,100  Level FlightAware ADS-B (CYYZ)
Sat 02:35:16 PM 41.4475 -77.7106 97° East 494 568 31,100  Level FlightAware ADS-B (CYYZ)
Sat 02:35:19 PM 41.4455 -77.6907 96° East 494 568 31,100  Level FlightAware ADS-B (KWWD)
Sat 02:35:45 PM 41.4383 -77.6126 97° East 496 571 31,100  Level FlightAware ADS-B (CYYZ)
Sat 02:36:15 PM 41.4296 -77.5225 97° East 497 572 31,100  Level FlightAware ADS-B (CYYZ)
Sat 02:36:46 PM 41.4207 -77.4308 97° East 499 574 31,100  Level FlightAware ADS-B (CYYZ)
Sat 02:37:15 PM 41.4117 -77.3389 97° East 500 575 31,100  Level FlightAware ADS-B (CYYZ)
Sat 02:37:46 PM 41.4028 -77.2485 97° East 501 577 31,100  Level FlightAware ADS-B (CYYZ)
Sat 02:38:16 PM 41.3936 -77.1549 97° East 503 579 31,100  Level FlightAware ADS-B (CYYZ)
Sat 02:38:35 PM 41.3876 -77.0937 96° East 494 568 31,100  Level FlightAware ADS-B (KWWD)
Sat 02:38:46 PM 41.3846 -77.0642 97° East 503 579 31,100 -185 Level FlightAware ADS-B (CYYZ)
Sat 02:39:40 PM 41.3680 -76.9011 97° East 503 579 30,900 -614 Descending FlightAware ADS-B (CYYZ)
Sat 02:40:14 PM 41.3561 -76.7919 98° East 504 580 30,200 -1,655 Descending FlightAware ADS-B (KWWD)
Sat 02:40:38 PM 41.3426 -76.7225 109° East 473 544 29,300 -2,333 Descending FlightAware ADS-B (KWWD)
Sat 02:40:50 PM 41.3357 -76.6961 109° East 473 544 28,800 -2,512 Descending FlightAware ADS-B (CYYZ)
Sat 02:41:21 PM 41.3110 -76.6044 109° East 465 535 27,500 -2,400 Descending FlightAware ADS-B (KWWD)
Sat 02:41:25 PM 41.3100 -76.6006 109° East 468 539 27,400 -2,323 Descending FlightAware ADS-B (CYYZ)
Sat 02:41:52 PM 41.2887 -76.5225 109° East 455 524 26,300 -2,316 Descending FlightAware ADS-B (KWWD)
Sat 02:42:22 PM 41.2675 -76.4448 109° East 449 517 25,200 -2,348 Descending FlightAware ADS-B (KWWD)
Sat 02:43:01 PM 41.2406 -76.3433 109° East 439 505 23,600 -1,993 Descending FlightAware ADS-B (KWWD)
Sat 02:47:02 PM 41.0861 -75.7803 110° East 376 433 15,900 -1,887 Descending FlightAware ADS-B (KWWD)
Sat 02:47:44 PM 41.0610 -75.6905 110° East 372 428 14,700 -1,704 Descending FlightAware ADS-B (KWWD)
Sat 02:48:23 PM 41.0382 -75.6081 110° East 368 423 13,600 -1,481 Descending FlightAware ADS-B (KWWD)
Sat 02:49:05 PM 41.0133 -75.5192 109° East 360 414 12,700 -1,259 Descending FlightAware ADS-B (KWWD)
Sat 02:49:44 PM 40.9908 -75.4389 109° East 347 399 11,900 -1,125 Descending FlightAware ADS-B (KWWD)
Sat 02:50:25 PM 40.9685 -75.3593 111° Southeast 328 377 11,200 -1,037 Descending FlightAware ADS-B (KWWD)
Sat 02:51:05 PM 40.9481 -75.2876 109° East 307 353 10,500 -943 Descending FlightAware ADS-B (KWWD)
Sat 02:51:35 PM 40.9333 -75.2364 109° East 291 335 10,100 -875 Descending FlightAware ADS-B (KWWD)
Sat 02:51:53 PM 40.9246 -75.2054 111° Southeast 283 326 9,800 -706 Descending FlightAware ADS-B (KWWD)
Sat 02:53:00 PM 40.8961 -75.1043 110° East 249 287 9,100 -492 Descending FlightAware ADS-B (KWWD)
Sat 02:53:55 PM 40.8456 -75.0778 110° East 253 291 8,800 -569 Descending New York Center
Sat 02:54:56 PM 40.8161 -75.1417 239° Southwest 136 157 8,000 -403 Descending New York Center
Sat 02:55:54 PM 40.8322 -75.2114 287° West 148 170 8,000 50 Level New York Center
Sat 02:56:55 PM 40.8700 -75.2631 314° West 201 231 8,100 -98 Climbing New York Center
Sat 02:57:56 PM 40.9117 -75.2056 46° Northeast 131 151 7,800 -545 Descending New York Center
Sat 02:58:56 PM 40.8858 -75.1158 111° Southeast 123 142 7,000 -403 Descending New York Center
Sat 02:59:55 PM 40.8542 -75.0153 113° Southeast 210 242 7,000 -403 Level New York Center
Sat 03:00:55 PM 40.8261 -74.9203 111° Southeast 259 298 6,200 -496 Descending New York Center
Sat 03:01:56 PM 40.8317 -74.8217 86° East 274 315 6,000 -100 Descending New York Center
Sat 03:02:55 PM 40.8533 -74.7353 72° East 274 315 6,000 -500 Level New York Center
Sat 03:03:56 PM 40.8817 -74.6328 70° East 275 316 5,000 -500 Descending New York Center
Sat 03:04:55 PM 40.9053 -74.5489 70° East 269 310 5,000 50 Level New York Center
Sat 03:05:56 PM 40.9172 -74.4397 82° East 264 304 5,100 -188 Climbing New York Center
Sat 03:06:31 PM 40.9167 -74.3667 91° East 299 344 4,700 -632 Descending New York TRACON
Sat 03:07:31 PM 40.9167 -74.2667 90° East 287 330 4,100 -550 Descending New York TRACON
Sat 03:08:31 PM 40.9000 -74.1667 102° East 283 326 3,600 -550 Descending New York TRACON
Sat 03:09:31 PM 40.8500 -74.1000 135° Southeast 268 308 3,000 -750 Descending New York TRACON
Sat 03:10:31 PM 40.8000 -74.1000 180° South 209 241 2,100 -900 Descending New York TRACON
Sat 03:11:31 PM 40.7500 -74.1333 207° Southwest 165 190 1,200 -850 Descending New York TRACON
Sat 03:12:31 PM 40.7167 -74.1500 201° Southwest 140 161 400 -800 Descending New York TRACON
Sat 03:14:00 PM 40.6925 -74.1687 187° South  Level Estimated
Sat 03:21:00 PM 40.6925 -74.1687 187° South  Level Estimated

Login

Don't have an account? Register now (free) for customized features, flight alerts, and more!